Time;durP1;ratioP1;P1;durP2;ratioP2;P2;SDS_P1;SDS_P2;PMS_P1;PMS_P2;Temp;Humidity;BMP_temperature;BMP_pressure;BME280_temperature;BME280_humidity;BME280_pressure;Samples;Min_cycle;Max_cycle;Signal;HPM_P1;HPM_P2
2022/01/08 00:00:45;;;;;;;10.90;8.77;;;;;;;0.79;100.00;100595.53;5058420;28;20252;-53
2022/01/08 00:03:12;;;;;;;9.87;8.90;;;;;;;0.58;100.00;100589.56;5056081;28;20254;-54
2022/01/08 00:05:39;;;;;;;11.43;9.67;;;;;;;0.62;100.00;100601.78;5051884;28;20246;-54
2022/01/08 00:08:06;;;;;;;10.27;9.27;;;;;;;0.60;100.00;100595.69;5050510;28;20482;-54
2022/01/08 00:10:32;;;;;;;11.20;10.10;;;;;;;0.51;100.00;100588.47;5038415;28;20711;-54
2022/01/08 00:13:01;;;;;;;11.20;10.13;;;;;;;0.51;100.00;100585.88;5040142;28;20237;-54
2022/01/08 00:15:28;;;;;;;11.33;9.50;;;;;;;0.35;100.00;100583.53;5049077;28;20236;-54
2022/01/08 00:17:54;;;;;;;10.33;9.20;;;;;;;0.31;100.00;100579.97;5054038;28;20803;-54
2022/01/08 00:20:20;;;;;;;11.23;9.73;;;;;;;0.23;100.00;100582.25;5045722;28;20260;-56
2022/01/08 00:22:51;;;;;;;13.17;10.37;;;;;;;0.16;100.00;100580.28;5053045;28;20224;-56
2022/01/08 00:25:17;;;;;;;12.70;9.97;;;;;;;0.10;100.00;100574.00;5053552;28;20230;-56
2022/01/08 00:27:43;;;;;;;16.17;10.67;;;;;;;0.04;100.00;100573.78;5056701;28;20252;-55
2022/01/08 00:30:13;;;;;;;11.87;10.63;;;;;;;-0.05;100.00;100580.31;5041912;28;20267;-56
2022/01/08 00:32:39;;;;;;;12.50;11.23;;;;;;;-0.03;100.00;100575.22;5040873;28;20227;-57
2022/01/08 00:35:06;;;;;;;12.23;10.97;;;;;;;0.00;100.00;100580.53;5039987;28;20320;-56
2022/01/08 00:37:34;;;;;;;14.30;12.53;;;;;;;0.06;100.00;100580.72;5043364;28;20978;-55
2022/01/08 00:40:02;;;;;;;13.73;12.33;;;;;;;0.04;100.00;100578.94;5051619;28;20231;-56
2022/01/08 00:42:29;;;;;;;11.97;10.53;;;;;;;0.02;100.00;100583.16;5049321;28;20227;-57
2022/01/08 00:44:55;;;;;;;12.33;10.90;;;;;;;-0.08;100.00;100585.34;5039946;28;20232;-58
2022/01/08 00:47:22;;;;;;;14.07;12.10;;;;;;;-0.12;100.00;100583.47;5052294;28;20720;-59
2022/01/08 00:49:48;;;;;;;12.80;11.60;;;;;;;-0.12;100.00;100582.59;5049338;28;20238;-59
2022/01/08 00:52:14;;;;;;;12.00;10.70;;;;;;;-0.06;100.00;100581.16;5045426;28;20230;-59
2022/01/08 00:54:41;;;;;;;12.77;11.30;;;;;;;0.01;100.00;100568.50;5051688;28;20352;-59
2022/01/08 00:57:09;;;;;;;16.53;13.77;;;;;;;-0.02;100.00;100580.44;5045161;28;20300;-61
2022/01/08 00:59:35;;;;;;;14.90;12.90;;;;;;;0.10;100.00;100581.72;5040985;28;20289;-60
2022/01/08 01:02:01;;;;;;;16.33;12.87;;;;;;;0.08;100.00;100580.81;5048002;28;20227;-60
2022/01/08 01:04:28;;;;;;;15.60;13.50;;;;;;;0.11;100.00;100575.78;5054451;28;20707;-60
2022/01/08 01:06:54;;;;;;;15.97;14.23;;;;;;;0.09;100.00;100567.06;5050475;28;20225;-60
2022/01/08 01:09:21;;;;;;;23.37;14.60;;;;;;;0.07;100.00;100567.03;5049643;28;20238;-58
2022/01/08 01:11:47;;;;;;;17.87;14.37;;;;;;;0.10;100.00;100564.53;5042108;28;20252;-58
2022/01/08 01:14:15;;;;;;;17.53;15.53;;;;;;;0.12;100.00;100551.72;5042852;28;20243;-58
2022/01/08 01:16:41;;;;;;;18.47;15.00;;;;;;;0.13;100.00;100556.03;5046688;28;20266;-59
2022/01/08 01:19:08;;;;;;;20.57;15.83;;;;;;;0.12;100.00;100555.16;5045585;28;20243;-61
2022/01/08 01:21:34;;;;;;;22.17;17.27;;;;;;;0.13;100.00;100556.03;5049290;28;20250;-57
2022/01/08 01:24:08;;;;;;;24.77;21.00;;;;;;;0.08;100.00;100555.00;5052938;28;20230;-60
2022/01/08 01:26:35;;;;;;;21.10;17.03;;;;;;;0.18;100.00;100557.13;5049020;28;20329;-58
2022/01/08 01:29:22;;;;;;;22.63;17.20;;;;;;;0.14;100.00;100545.78;5058423;28;20243;-58
2022/01/08 01:48:20;;;;;;;21.10;16.57;;;;;;;0.24;100.00;100531.50;5049431;28;20661;-58
2022/01/08 01:50:47;;;;;;;20.63;16.03;;;;;;;0.26;100.00;100531.56;5049573;28;20234;-58
2022/01/08 01:53:13;;;;;;;18.43;16.20;;;;;;;0.20;100.00;100529.63;5045245;28;20241;-58
2022/01/08 01:55:40;;;;;;;22.63;16.23;;;;;;;0.31;100.00;100528.31;5058580;28;20340;-59
2022/01/08 01:58:06;;;;;;;20.80;16.80;;;;;;;0.26;100.00;100524.72;5052110;28;20316;-58
2022/01/08 02:00:33;;;;;;;20.33;17.27;;;;;;;0.22;100.00;100522.84;5047717;28;20228;-57
2022/01/08 02:02:59;;;;;;;19.53;15.93;;;;;;;0.18;100.00;100520.97;5049453;28;20331;-58
2022/01/08 02:05:27;;;;;;;18.43;16.47;;;;;;;0.22;100.00;100520.25;5060310;28;20252;-60
2022/01/08 02:07:55;;;;;;;19.93;16.00;;;;;;;0.26;100.00;100518.66;5055504;28;20224;-58
2022/01/08 02:10:21;;;;;;;19.17;15.67;;;;;;;0.28;100.00;100515.31;5039843;28;20955;-58
2022/01/08 02:12:48;;;;;;;18.20;15.33;;;;;;;0.28;100.00;100512.75;5045560;28;20273;-58
2022/01/08 02:15:14;;;;;;;16.23;14.27;;;;;;;0.32;100.00;100509.44;5056519;28;20297;-58
2022/01/08 02:17:40;;;;;;;19.10;14.50;;;;;;;0.29;100.00;100514.50;5067142;28;20235;-57
2022/01/08 02:20:09;;;;;;;16.87;14.77;;;;;;;0.30;100.00;100515.38;5070379;28;20279;-57
2022/01/08 02:22:35;;;;;;;17.30;14.77;;;;;;;0.29;100.00;100522.25;5062101;28;20266;-56
2022/01/08 02:25:02;;;;;;;16.87;14.67;;;;;;;0.33;100.00;100516.38;5058516;28;20232;-57
2022/01/08 02:27:28;;;;;;;15.30;13.70;;;;;;;0.44;100.00;100521.91;5047971;28;20316;-57
2022/01/08 02:29:54;;;;;;;17.97;14.27;;;;;;;0.35;100.00;100522.47;5047722;28;20249;-57
2022/01/08 02:32:25;;;;;;;16.77;13.50;;;;;;;0.29;100.00;100511.91;5046430;28;20241;-57
2022/01/08 02:34:51;;;;;;;15.37;12.90;;;;;;;0.30;100.00;100516.25;5057195;28;20230;-58
2022/01/08 02:37:25;;;;;;;15.03;13.43;;;;;;;0.29;100.00;100524.81;5046316;28;20649;-55
2022/01/08 02:39:51;;;;;;;16.00;14.30;;;;;;;0.34;100.00;100522.41;5061320;28;20239;-55
2022/01/08 02:42:19;;;;;;;16.70;14.17;;;;;;;0.33;100.00;100526.69;5057660;28;20251;-55
2022/01/08 02:44:46;;;;;;;16.63;13.43;;;;;;;0.32;100.00;100521.47;5046597;28;20247;-55
2022/01/08 02:47:14;;;;;;;18.13;15.07;;;;;;;0.35;100.00;100518.97;5051952;28;20320;-56
2022/01/08 02:49:40;;;;;;;17.97;14.30;;;;;;;0.27;100.00;100525.59;5051408;28;20270;-55
2022/01/08 02:52:07;;;;;;;19.67;13.37;;;;;;;0.40;100.00;100520.06;5053871;28;20255;-55
2022/01/08 02:54:35;;;;;;;16.97;14.77;;;;;;;0.35;100.00;100513.81;5063631;28;20796;-56
2022/01/08 02:57:01;;;;;;;16.93;13.43;;;;;;;0.43;100.00;100518.47;5067396;28;20626;-54
2022/01/08 02:59:28;;;;;;;16.77;13.57;;;;;;;0.41;100.00;100514.94;5048653;28;20729;-57
2022/01/08 03:01:54;;;;;;;15.60;12.93;;;;;;;0.44;100.00;100515.03;5059154;28;20261;-55
2022/01/08 03:04:21;;;;;;;16.90;14.23;;;;;;;0.41;100.00;100514.94;5059547;28;20265;-55
2022/01/08 03:06:47;;;;;;;16.10;13.73;;;;;;;0.41;100.00;100509.75;5059642;28;20312;-53
2022/01/08 03:09:14;;;;;;;16.83;13.47;;;;;;;0.55;100.00;100511.97;5043743;28;20262;-55
2022/01/08 03:11:43;;;;;;;15.07;12.93;;;;;;;0.51;100.00;100520.44;5038756;28;20262;-54
2022/01/08 03:14:10;;;;;;;14.53;12.43;;;;;;;0.45;100.00;100516.78;5036314;28;20239;-54
2022/01/08 03:16:36;;;;;;;17.23;13.10;;;;;;;0.43;100.00;100518.47;5048175;28;20263;-55
2022/01/08 03:19:09;;;;;;;17.10;13.80;;;;;;;0.36;100.00;100511.31;5062245;28;20238;-55
2022/01/08 03:21:38;;;;;;;14.00;12.00;;;;;;;0.46;100.00;100516.00;5035996;28;20250;-53
2022/01/08 03:24:07;;;;;;;18.50;13.07;;;;;;;0.47;100.00;100519.44;5052914;28;20238;-54
2022/01/08 03:26:33;;;;;;;15.17;13.23;;;;;;;0.57;100.00;100516.38;5059896;28;20234;-54
2022/01/08 03:29:01;;;;;;;14.60;13.07;;;;;;;0.55;100.00;100512.84;5053238;28;20700;-54
2022/01/08 03:31:27;;;;;;;16.63;13.10;;;;;;;0.50;100.00;100509.22;5063164;28;20273;-56
2022/01/08 03:33:54;;;;;;;14.73;13.07;;;;;;;0.50;100.00;100503.19;5058847;28;20249;-53
2022/01/08 03:36:23;;;;;;;13.67;12.00;;;;;;;0.51;100.00;100510.09;5058379;28;20265;-54
2022/01/08 03:38:50;;;;;;;18.13;13.17;;;;;;;0.50;100.00;100504.06;5059776;28;20850;-54
2022/01/08 03:41:16;;;;;;;13.17;11.73;;;;;;;0.47;100.00;100509.13;5059626;28;20739;-54
2022/01/08 03:43:42;;;;;;;16.07;12.60;;;;;;;0.42;100.00;100508.97;5045405;28;20785;-55
2022/01/08 03:46:11;;;;;;;14.37;12.33;;;;;;;0.45;100.00;100509.03;5045252;28;20258;-54
2022/01/08 03:48:46;;;;;;;15.43;13.10;;;;;;;0.52;100.00;100514.44;5057423;28;20264;-53
2022/01/08 03:51:12;;;;;;;18.40;13.00;;;;;;;0.59;100.00;100508.66;5063962;28;20243;-54
2022/01/08 03:53:39;;;;;;;14.80;12.90;;;;;;;0.52;100.00;100511.84;5052581;28;20277;-54
2022/01/08 03:56:06;;;;;;;13.53;11.77;;;;;;;0.44;100.00;100509.00;5062787;28;20261;-53
2022/01/08 03:58:33;;;;;;;17.13;13.67;;;;;;;0.45;100.00;100506.47;5050817;28;20296;-56
2022/01/08 04:00:59;;;;;;;14.73;13.13;;;;;;;0.45;100.00;100506.47;5059621;28;20243;-53
2022/01/08 04:03:27;;;;;;;13.90;12.13;;;;;;;0.49;100.00;100497.13;5064668;28;20231;-55
2022/01/08 04:05:53;;;;;;;14.20;12.77;;;;;;;0.57;100.00;100510.34;5063793;28;20265;-54
2022/01/08 04:08:20;;;;;;;14.40;12.90;;;;;;;0.50;100.00;100516.09;5061982;28;20335;-53
2022/01/08 04:10:46;;;;;;;19.07;13.90;;;;;;;0.47;100.00;100510.00;5059406;28;20253;-54
2022/01/08 04:13:16;;;;;;;15.83;13.20;;;;;;;0.46;100.00;100508.25;5064435;28;20661;-54
2022/01/08 04:15:45;;;;;;;15.07;12.83;;;;;;;0.43;100.00;100513.28;5062764;28;20257;-54
2022/01/08 04:18:12;;;;;;;13.87;12.40;;;;;;;0.50;100.00;100514.41;5058404;28;20766;-52
2022/01/08 04:20:50;;;;;;;14.33;12.00;;;;;;;0.54;100.00;100516.25;5058015;28;20319;-53
2022/01/08 04:23:20;;;;;;;21.20;12.83;;;;;;;0.51;100.00;100515.28;5060449;28;20229;-54
2022/01/08 04:25:47;;;;;;;15.23;13.17;;;;;;;0.50;100.00;100511.81;5062268;28;20744;-54
2022/01/08 04:28:13;;;;;;;17.33;13.70;;;;;;;0.47;100.00;100510.00;5060938;28;20257;-54
2022/01/08 04:30:39;;;;;;;16.33;12.50;;;;;;;0.42;100.00;100511.53;5064103;28;20276;-53
2022/01/08 04:33:06;;;;;;;15.83;13.23;;;;;;;0.41;100.00;100519.22;5063477;28;20253;-53
2022/01/08 04:35:32;;;;;;;15.23;12.77;;;;;;;0.46;100.00;100523.75;5060427;28;20254;-52
2022/01/08 04:38:00;;;;;;;17.70;13.20;;;;;;;0.41;100.00;100509.75;5060110;28;20302;-54
2022/01/08 04:40:27;;;;;;;18.23;13.40;;;;;;;0.40;100.00;100517.47;5063398;28;20247;-53
2022/01/08 04:42:53;;;;;;;13.00;11.60;;;;;;;0.36;100.00;100520.78;5063197;28;20237;-53
2022/01/08 04:45:21;;;;;;;13.73;12.13;;;;;;;0.47;100.00;100520.31;5059237;28;20892;-52
2022/01/08 04:47:47;;;;;;;15.57;12.63;;;;;;;0.40;100.00;100527.78;5061451;28;21022;-52
2022/01/08 04:50:14;;;;;;;18.50;12.87;;;;;;;0.45;100.00;100521.97;5059240;28;20258;-54
2022/01/08 04:52:40;;;;;;;17.20;13.27;;;;;;;0.42;100.00;100526.13;5059182;28;20327;-53
2022/01/08 04:55:09;;;;;;;14.80;12.07;;;;;;;0.45;100.00;100519.38;5058681;28;20279;-52
2022/01/08 04:57:35;;;;;;;16.80;13.20;;;;;;;0.53;100.00;100518.75;5051197;28;20273;-51
2022/01/08 05:00:02;;;;;;;15.97;13.43;;;;;;;0.51;100.00;100530.78;5060665;28;20240;-53
2022/01/08 05:02:28;;;;;;;15.70;12.80;;;;;;;0.46;100.00;100533.19;5066943;28;20283;-54
2022/01/08 05:04:54;;;;;;;13.23;11.77;;;;;;;0.54;100.00;100538.63;5060293;28;20257;-51
2022/01/08 05:07:21;;;;;;;14.47;12.93;;;;;;;0.50;100.00;100534.19;5053145;28;20629;-53
2022/01/08 05:09:47;;;;;;;17.53;13.37;;;;;;;0.47;100.00;100538.41;5064472;28;20247;-52
2022/01/08 05:12:15;;;;;;;19.27;13.00;;;;;;;0.45;100.00;100537.44;5061523;28;20251;-53
2022/01/08 05:14:42;;;;;;;16.70;13.07;;;;;;;0.39;100.00;100531.22;5057513;28;20265;-52
2022/01/08 05:17:09;;;;;;;14.93;13.33;;;;;;;0.34;100.00;100531.03;5053789;28;20231;-56
2022/01/08 05:19:40;;;;;;;17.20;13.03;;;;;;;0.44;100.00;100527.06;5051122;28;20588;-53
2022/01/08 05:22:07;;;;;;;17.07;12.67;;;;;;;0.41;100.00;100530.41;5044946;28;20298;-54
2022/01/08 05:24:34;;;;;;;14.80;12.63;;;;;;;0.41;100.00;100529.53;5046748;28;20231;-53
2022/01/08 05:27:00;;;;;;;15.67;11.93;;;;;;;0.38;100.00;100534.59;5062955;28;20265;-53
2022/01/08 05:29:28;;;;;;;14.63;12.53;;;;;;;0.40;100.00;100528.66;5060608;28;20227;-55
2022/01/08 05:31:54;;;;;;;16.07;12.07;;;;;;;0.41;100.00;100525.25;5052710;28;20316;-54
2022/01/08 05:34:20;;;;;;;15.63;12.27;;;;;;;0.47;100.00;100528.06;5039508;28;20267;-52
2022/01/08 05:36:47;;;;;;;13.27;11.67;;;;;;;0.56;100.00;100529.22;5044382;28;20734;-53
2022/01/08 05:39:13;;;;;;;13.10;11.43;;;;;;;0.54;100.00;100531.75;5043173;28;20328;-54
2022/01/08 05:41:39;;;;;;;14.70;11.53;;;;;;;0.52;100.00;100535.97;5061342;28;20239;-53
2022/01/08 05:44:06;;;;;;;14.47;10.90;;;;;;;0.59;100.00;100534.50;5052601;28;20242;-55
2022/01/08 05:46:33;;;;;;;14.87;11.73;;;;;;;0.67;100.00;100548.59;5056674;28;20308;-55
2022/01/08 05:49:02;;;;;;;13.77;11.30;;;;;;;0.66;100.00;100546.81;5061815;28;20233;-54
2022/01/08 05:51:28;;;;;;;14.10;11.70;;;;;;;0.70;100.00;100553.84;5053255;28;20612;-51
2022/01/08 05:53:55;;;;;;;14.90;11.20;;;;;;;0.71;100.00;100545.28;5050458;28;20258;-53
2022/01/08 05:56:21;;;;;;;11.10;9.80;;;;;;;0.67;100.00;100549.47;5053638;28;20297;-54
2022/01/08 05:58:47;;;;;;;13.47;10.30;;;;;;;0.67;100.00;100552.03;5043046;28;20246;-53
2022/01/08 06:01:14;;;;;;;13.80;10.87;;;;;;;0.71;100.00;100550.44;5044185;28;20262;-55
2022/01/08 06:03:41;;;;;;;13.50;11.37;;;;;;;0.68;100.00;100550.34;5051391;28;20268;-54
2022/01/08 06:06:07;;;;;;;14.57;11.77;;;;;;;0.65;100.00;100553.69;5050999;28;20276;-53
2022/01/08 06:08:34;;;;;;;12.17;10.43;;;;;;;0.69;100.00;100555.53;5044970;28;20262;-54
2022/01/08 06:11:00;;;;;;;16.43;11.70;;;;;;;0.70;100.00;100549.56;5038456;28;20323;-53
2022/01/08 06:13:26;;;;;;;13.87;11.13;;;;;;;0.68;100.00;100552.91;5055971;28;20233;-54
2022/01/08 06:15:53;;;;;;;15.47;11.93;;;;;;;0.70;100.00;100548.66;5056146;28;20234;-52
2022/01/08 06:18:19;;;;;;;15.27;11.93;;;;;;;0.70;100.00;100543.50;5051578;28;20268;-53
2022/01/08 06:20:47;;;;;;;14.07;11.23;;;;;;;0.75;100.00;100557.47;5061204;28;20264;-53
2022/01/08 06:23:13;;;;;;;16.30;11.30;;;;;;;0.78;100.00;100552.44;5049582;28;20262;-51
2022/01/08 06:25:43;;;;;;;12.10;9.97;;;;;;;0.86;100.00;100552.69;5052204;28;20254;-54
2022/01/08 06:28:09;;;;;;;12.60;9.47;;;;;;;0.93;100.00;100545.19;5062963;28;20303;-51
2022/01/08 06:30:35;;;;;;;11.37;9.77;;;;;;;0.84;100.00;100560.41;5044707;28;20881;-53
2022/01/08 06:33:02;;;;;;;11.07;9.90;;;;;;;0.98;100.00;100558.25;5058153;28;20289;-53
2022/01/08 06:35:29;;;;;;;11.63;10.43;;;;;;;0.97;100.00;100560.81;5048127;28;20247;-51
2022/01/08 06:37:57;;;;;;;12.93;9.60;;;;;;;1.09;100.00;100563.81;5046373;28;20235;-52
2022/01/08 06:40:23;;;;;;;11.57;10.03;;;;;;;1.09;100.00;100569.88;5046954;28;20288;-52
2022/01/08 06:42:50;;;;;;;11.40;9.30;;;;;;;1.09;100.00;100572.47;5063985;28;20261;-54
2022/01/08 06:45:16;;;;;;;11.77;8.77;;;;;;;1.18;100.00;100567.59;5055901;28;20292;-53
2022/01/08 06:47:45;;;;;;;11.17;9.47;;;;;;;1.26;100.00;100572.16;5062977;28;20661;-51
2022/01/08 06:50:11;;;;;;;12.13;9.13;;;;;;;1.18;100.00;100574.47;5058449;28;20329;-54
2022/01/08 06:52:38;;;;;;;11.23;8.90;;;;;;;1.13;100.00;100586.38;5058976;28;20257;-53
2022/01/08 06:55:07;;;;;;;11.10;9.33;;;;;;;1.20;100.00;100583.19;5060581;28;20240;-53
2022/01/08 06:57:34;;;;;;;10.60;8.60;;;;;;;1.28;100.00;100586.03;5054723;28;20243;-54
2022/01/08 07:00:02;;;;;;;13.67;9.03;;;;;;;1.32;100.00;100587.88;5052452;28;20239;-52
2022/01/08 07:02:28;;;;;;;10.50;9.33;;;;;;;1.30;100.00;100587.84;5061232;28;20324;-53
2022/01/08 07:04:54;;;;;;;10.53;8.27;;;;;;;1.38;100.00;100588.09;5055443;28;20284;-52
2022/01/08 07:07:21;;;;;;;9.80;8.80;;;;;;;1.43;100.00;100591.69;5027825;28;20332;-54
2022/01/08 07:09:47;;;;;;;9.47;7.67;;;;;;;1.56;100.00;100590.41;5036487;28;20317;-54
2022/01/08 07:12:15;;;;;;;11.80;9.53;;;;;;;1.49;100.00;100589.31;5038281;28;20250;-53
2022/01/08 07:14:41;;;;;;;11.27;9.13;;;;;;;1.43;100.00;100592.56;5035748;28;20315;-52
2022/01/08 07:17:07;;;;;;;10.63;9.10;;;;;;;1.48;100.00;100594.47;5055775;28;20230;-53
2022/01/08 07:19:34;;;;;;;12.87;9.53;;;;;;;1.43;100.00;100602.03;5061047;28;20723;-53
2022/01/08 07:22:00;;;;;;;9.30;8.13;;;;;;;1.39;100.00;100595.88;5038432;28;20242;-52
2022/01/08 07:24:27;;;;;;;9.73;7.93;;;;;;;1.35;100.00;100604.38;5034279;28;20238;-52
2022/01/08 07:26:53;;;;;;;11.07;9.17;;;;;;;1.33;100.00;100595.66;5041933;28;20269;-52
2022/01/08 07:29:21;;;;;;;11.23;10.03;;;;;;;1.37;100.00;100594.97;5052918;28;20811;-54
2022/01/08 07:31:47;;;;;;;12.83;8.73;;;;;;;1.43;100.00;100587.41;5042753;28;20264;-54
2022/01/08 07:34:14;;;;;;;10.33;9.23;;;;;;;1.33;100.00;100590.50;5055954;28;20699;-52
2022/01/08 07:36:40;;;;;;;9.40;8.33;;;;;;;1.32;100.00;100588.75;5056262;28;21206;-51
2022/01/08 07:39:06;;;;;;;9.50;8.37;;;;;;;1.37;100.00;100591.47;5050844;28;20295;-54
2022/01/08 07:41:33;;;;;;;12.30;10.17;;;;;;;1.36;100.00;100597.50;5043309;28;20327;-53
2022/01/08 07:43:59;;;;;;;10.73;9.00;;;;;;;1.39;100.00;100595.88;5045971;28;20220;-52
2022/01/08 07:46:27;;;;;;;11.73;8.97;;;;;;;1.41;100.00;100599.41;5058441;28;20237;-54
2022/01/08 07:48:53;;;;;;;12.80;8.80;;;;;;;1.35;100.00;100593.16;5061784;28;20227;-53
2022/01/08 07:51:19;;;;;;;12.23;9.10;;;;;;;1.33;100.00;100599.97;5056954;28;20268;-52
2022/01/08 07:53:46;;;;;;;11.43;9.20;;;;;;;1.37;100.00;100602.72;5055220;28;20269;-53
2022/01/08 07:56:12;;;;;;;10.80;9.27;;;;;;;1.36;100.00;100606.13;5055157;28;20257;-52
2022/01/08 07:58:38;;;;;;;12.87;10.60;;;;;;;1.34;100.00;100617.28;5048674;28;20328;-52
2022/01/08 08:01:05;;;;;;;11.27;9.20;;;;;;;1.43;100.00;100610.69;5053965;28;20243;-53
2022/01/08 08:03:32;;;;;;;9.77;8.77;;;;;;;1.56;100.00;100608.50;5055758;28;20262;-52
2022/01/08 08:05:59;;;;;;;9.77;8.77;;;;;;;1.50;100.00;100609.19;5056259;28;20250;-52
2022/01/08 08:08:25;;;;;;;9.37;8.37;;;;;;;1.46;100.00;100607.31;5054442;28;20270;-53
2022/01/08 08:10:51;;;;;;;11.43;8.83;;;;;;;1.44;100.00;100603.81;5051456;28;20265;-54
2022/01/08 08:13:18;;;;;;;10.77;9.07;;;;;;;1.48;100.00;100604.81;5059163;28;20782;-53
2022/01/08 08:15:45;;;;;;;9.20;7.93;;;;;;;1.43;100.00;100608.09;5054271;28;20292;-53
2022/01/08 08:18:11;;;;;;;15.33;9.70;;;;;;;1.35;100.00;100617.31;5058314;28;20338;-54
2022/01/08 08:20:39;;;;;;;11.63;9.97;;;;;;;1.45;100.00;100621.09;5040384;28;20239;-54
2022/01/08 08:23:06;;;;;;;10.90;9.70;;;;;;;1.41;100.00;100625.28;5044921;28;20235;-53
2022/01/08 08:25:32;;;;;;;12.27;10.33;;;;;;;1.28;100.00;100615.34;5061868;28;20250;-53
2022/01/08 08:27:58;;;;;;;12.17;9.47;;;;;;;1.34;100.00;100615.56;5062160;28;20766;-54
2022/01/08 08:30:25;;;;;;;13.77;9.00;;;;;;;1.28;100.00;100611.88;5059667;28;20317;-53
2022/01/08 08:32:51;;;;;;;13.03;9.97;;;;;;;1.27;100.00;100610.13;5053397;28;20264;-54
2022/01/08 08:35:18;;;;;;;14.50;10.17;;;;;;;1.14;100.00;100604.50;5059319;28;20317;-53
2022/01/08 08:37:45;;;;;;;12.37;9.43;;;;;;;1.19;100.00;100603.00;5042799;28;20297;-53
2022/01/08 08:40:13;;;;;;;11.10;9.97;;;;;;;1.27;100.00;100598.06;5058607;28;20250;-52
2022/01/08 08:42:41;;;;;;;16.27;9.77;;;;;;;1.31;100.00;100593.88;5052948;28;20241;-52
2022/01/08 08:45:09;;;;;;;12.67;10.80;;;;;;;1.27;100.00;100590.31;5057296;28;20237;-53
2022/01/08 08:47:35;;;;;;;14.87;10.63;;;;;;;1.26;100.00;100583.38;5060320;28;21068;-53
2022/01/08 08:50:02;;;;;;;14.93;9.27;;;;;;;1.36;100.00;100588.03;5059847;28;20275;-54
2022/01/08 08:52:29;;;;;;;12.27;10.33;;;;;;;1.44;100.00;100588.31;5051361;28;20739;-53
2022/01/08 08:54:56;;;;;;;10.60;9.50;;;;;;;1.42;100.00;100588.22;5042903;28;20258;-53
2022/01/08 08:57:23;;;;;;;14.53;9.23;;;;;;;1.40;100.00;100586.41;5062414;28;20278;-53
2022/01/08 08:59:49;;;;;;;12.17;9.53;;;;;;;1.50;100.00;100574.66;5062888;28;20276;-54
2022/01/08 09:02:15;;;;;;;11.37;10.23;;;;;;;1.45;100.00;100577.13;5060541;28;20257;-53
2022/01/08 09:04:42;;;;;;;11.30;10.00;;;;;;;1.44;100.00;100577.97;5052095;28;20235;-53
2022/01/08 09:07:08;;;;;;;14.47;11.13;;;;;;;1.36;100.00;100580.25;5058794;28;20239;-54
2022/01/08 09:09:34;;;;;;;10.47;9.37;;;;;;;1.27;100.00;100569.63;5060336;28;20265;-52
2022/01/08 09:12:03;;;;;;;13.97;11.13;;;;;;;1.21;100.00;100574.59;5063941;28;20226;-53
2022/01/08 09:14:29;;;;;;;13.63;10.53;;;;;;;1.29;100.00;100582.59;5057746;28;20296;-51
2022/01/08 09:17:00;;;;;;;11.23;10.03;;;;;;;1.34;100.00;100588.81;5052606;28;20227;-53
2022/01/08 09:19:26;;;;;;;12.83;10.23;;;;;;;1.21;100.00;100589.22;5053979;28;20226;-55
2022/01/08 09:21:52;;;;;;;13.53;9.73;;;;;;;1.27;100.00;100590.31;5041537;28;20239;-52
2022/01/08 09:24:19;;;;;;;11.37;10.17;;;;;;;1.24;100.00;100603.13;5055319;28;20243;-52
2022/01/08 09:26:45;;;;;;;12.40;9.90;;;;;;;1.25;100.00;100604.00;5059236;28;20239;-53
2022/01/08 09:29:13;;;;;;;11.27;9.80;;;;;;;1.23;100.00;100609.16;5062282;28;20300;-52
2022/01/08 09:31:40;;;;;;;14.17;10.67;;;;;;;1.19;100.00;100609.84;5056715;28;20281;-53
2022/01/08 09:34:06;;;;;;;11.80;10.60;;;;;;;1.12;100.00;100618.22;5060568;28;20319;-53
2022/01/08 09:36:33;;;;;;;11.50;10.20;;;;;;;1.21;100.00;100609.91;5056732;28;20279;-53
2022/01/08 09:38:59;;;;;;;12.90;11.50;;;;;;;1.19;100.00;100615.00;5047011;28;20244;-53
2022/01/08 09:41:26;;;;;;;12.30;9.63;;;;;;;1.21;100.00;100610.78;5049455;28;20731;-54
2022/01/08 09:43:52;;;;;;;12.83;9.90;;;;;;;1.22;100.00;100611.66;5072927;28;20251;-53
2022/01/08 09:46:21;;;;;;;15.93;11.70;;;;;;;1.23;100.00;100601.38;5068340;28;20231;-54
2022/01/08 09:48:48;;;;;;;12.07;10.17;;;;;;;1.20;100.00;100601.28;5073140;28;20235;-53
2022/01/08 09:51:14;;;;;;;12.70;10.37;;;;;;;1.33;100.00;100602.56;5071372;28;20605;-55
2022/01/08 09:53:41;;;;;;;11.70;10.50;;;;;;;1.25;100.00;100602.31;5072462;28;20595;-54
2022/01/08 09:56:07;;;;;;;12.07;9.93;;;;;;;1.25;100.00;100601.44;5062908;28;20257;-54
2022/01/08 09:58:33;;;;;;;14.37;11.27;;;;;;;1.19;100.00;100591.75;5059509;28;20261;-52
2022/01/08 10:01:00;;;;;;;14.77;10.60;;;;;;;1.18;100.00;100592.56;5061977;28;20311;-52
2022/01/08 10:03:32;;;;;;;18.23;10.80;;;;;;;1.13;100.00;100586.38;5059097;28;20278;-52
2022/01/08 10:05:59;;;;;;;12.00;10.63;;;;;;;1.08;100.00;100593.06;5058168;28;20219;-52
2022/01/08 10:08:27;;;;;;;12.83;11.27;;;;;;;1.11;100.00;100593.19;5054950;28;20238;-54
2022/01/08 10:10:57;;;;;;;12.00;9.80;;;;;;;1.11;100.00;100588.03;5059571;28;20255;-55
2022/01/08 10:13:25;;;;;;;15.97;11.37;;;;;;;1.05;100.00;100586.09;5058072;28;20322;-52
2022/01/08 10:18:40;;;;;;;14.07;10.20;;;;;;;1.09;100.00;100584.50;5054813;28;20261;-51
2022/01/08 10:21:18;;;;;;;12.67;10.80;;;;;;;1.14;100.00;100577.78;5059653;28;20320;-53
2022/01/08 10:23:46;;;;;;;12.00;10.43;;;;;;;1.28;100.00;100575.69;5055882;28;20225;-52
2022/01/08 10:26:15;;;;;;;13.03;11.47;;;;;;;1.12;100.00;100574.25;5055246;28;20243;-53
2022/01/08 10:28:44;;;;;;;12.90;10.83;;;;;;;1.25;100.00;100571.28;5061719;28;20231;-52
2022/01/08 10:31:13;;;;;;;13.63;11.20;;;;;;;1.27;100.00;100572.22;5056367;28;20769;-53
2022/01/08 10:33:42;;;;;;;13.90;10.53;;;;;;;1.28;100.00;100570.50;5035259;28;21283;-53
2022/01/08 10:36:09;;;;;;;12.67;10.37;;;;;;;1.35;100.00;100573.34;5051601;28;20237;-52
2022/01/08 10:38:35;;;;;;;13.27;11.43;;;;;;;1.44;100.00;100570.19;5039891;28;20320;-52
2022/01/08 10:41:03;;;;;;;11.97;10.63;;;;;;;1.42;100.00;100561.50;5053691;28;20316;-51
2022/01/08 10:43:31;;;;;;;11.70;9.90;;;;;;;1.54;100.00;100556.69;5055225;28;20713;-52
2022/01/08 10:46:09;;;;;;;12.77;10.33;;;;;;;1.74;100.00;100554.75;5044794;28;20791;-57
2022/01/08 10:48:35;;;;;;;13.77;11.43;;;;;;;1.75;100.00;100559.09;5050107;28;20720;-53
2022/01/08 10:51:11;;;;;;;15.00;11.10;;;;;;;1.83;100.00;100552.47;5042203;28;20698;-52
2022/01/08 10:53:54;;;;;;;12.60;10.67;;;;;;;1.82;100.00;100558.47;5052221;28;20309;-52
2022/01/08 10:56:22;;;;;;;14.13;11.13;;;;;;;1.84;100.00;100556.81;5054369;28;20262;-53
2022/01/08 10:58:52;;;;;;;11.87;10.40;;;;;;;1.89;100.00;100547.47;5051705;28;20239;-53
2022/01/08 11:01:40;;;;;;;14.43;10.97;;;;;;;2.07;100.00;100556.63;5051011;28;20244;-53
2022/01/08 11:04:08;;;;;;;13.97;10.50;;;;;;;2.21;100.00;100550.19;5052037;28;20540;-54
2022/01/08 11:06:49;;;;;;;12.07;10.00;;;;;;;2.31;100.00;100562.53;5058998;28;20234;-55
2022/01/08 11:09:15;;;;;;;12.80;10.03;;;;;;;2.27;100.00;100568.47;5060477;28;20229;-51
2022/01/08 11:11:43;;;;;;;12.27;9.63;;;;;;;2.25;100.00;100562.38;5059063;28;20299;-54
2022/01/08 11:14:21;;;;;;;9.67;8.67;;;;;;;2.39;100.00;100561.06;5034275;28;20257;-52
2022/01/08 11:16:50;;;;;;;12.20;9.13;;;;;;;2.52;100.00;100561.41;5046352;28;20838;-53
2022/01/08 11:19:18;;;;;;;10.13;8.77;;;;;;;2.61;100.00;100566.88;5054378;28;20226;-53
2022/01/08 11:21:48;;;;;;;10.20;9.17;;;;;;;2.50;100.00;100565.69;5055877;28;20755;-53
2022/01/08 11:24:17;;;;;;;10.53;8.33;;;;;;;2.32;100.00;100571.22;5047598;28;20246;-52
2022/01/08 11:26:44;;;;;;;10.37;8.63;;;;;;;2.41;100.00;100574.06;5049714;28;20235;-52
2022/01/08 11:29:11;;;;;;;14.63;8.73;;;;;;;2.46;100.00;100574.19;5051263;28;20276;-52
2022/01/08 11:31:38;;;;;;;10.97;7.97;;;;;;;2.46;100.00;100577.69;5049299;28;20248;-52